Time;durP1;ratioP1;P1;durP2;ratioP2;P2;SDS_P1;SDS_P2;PMS_P1;PMS_P2;Temp;Humidity;BMP_temperature;BMP_pressure;BME280_temperature;BME280_humidity;BME280_pressure;Samples;Min_cycle;Max_cycle;Signal;HPM_P1;HPM_P2
2021/10/24 00:01:03;;;;;;;9.03;3.57;;;;;;;;;;4434745;32;20298;-54
2021/10/24 00:03:28;;;;;;;5.17;3.40;;;;;;;;;;4435561;32;20192;-55
2021/10/24 00:05:54;;;;;;;3.07;2.37;;;;;;;;;;4435404;32;20306;-54
2021/10/24 00:08:21;;;;;;;3.93;2.70;;;;;;;;;;4435187;32;20362;-54
2021/10/24 00:10:46;;;;;;;4.13;2.77;;;;;;;;;;4435448;32;20306;-55
2021/10/24 00:13:12;;;;;;;3.63;2.77;;;;;;;;;;4434764;32;20299;-55
2021/10/24 00:15:38;;;;;;;3.90;2.60;;;;;;;;;;4435089;32;20314;-55
2021/10/24 00:18:03;;;;;;;3.57;2.23;;;;;;;;;;4434607;32;20212;-54
2021/10/24 00:20:29;;;;;;;3.00;2.43;;;;;;;;;;4434862;32;20288;-54
2021/10/24 00:22:54;;;;;;;3.70;2.67;;;;;;;;;;4434466;32;20258;-54
2021/10/24 00:25:20;;;;;;;3.07;2.53;;;;;;;;;;4434341;32;20356;-55
2021/10/24 00:27:45;;;;;;;4.37;2.73;;;;;;;;;;4434605;32;20247;-54
2021/10/24 00:30:10;;;;;;;4.37;2.53;;;;;;;;;;4434280;32;20311;-54
2021/10/24 00:32:36;;;;;;;3.50;1.90;;;;;;;;;;4432144;32;20335;-54
2021/10/24 00:35:03;;;;;;;3.43;2.50;;;;;;;;;;4434092;32;20321;-55
2021/10/24 00:37:28;;;;;;;4.13;2.40;;;;;;;;;;4434507;32;20233;-54
2021/10/24 00:39:54;;;;;;;3.17;2.10;;;;;;;;;;4434031;32;20335;-54
2021/10/24 00:42:19;;;;;;;3.77;2.20;;;;;;;;;;4433951;32;20623;-54
2021/10/24 00:44:44;;;;;;;2.67;2.17;;;;;;;;;;4434488;32;20359;-54
2021/10/24 00:47:10;;;;;;;3.03;2.23;;;;;;;;;;4434254;32;20386;-54
2021/10/24 00:49:36;;;;;;;5.20;3.97;;;;;;;;;;4434192;32;20398;-55
2021/10/24 00:52:02;;;;;;;6.43;3.60;;;;;;;;;;4433886;32;20220;-54
2021/10/24 00:54:29;;;;;;;5.10;3.27;;;;;;;;;;4433724;32;20300;-55
2021/10/24 00:56:55;;;;;;;5.23;3.47;;;;;;;;;;4433726;32;20316;-54
2021/10/24 00:59:25;;;;;;;7.53;4.77;;;;;;;;;;4432599;32;20721;-55
2021/10/24 01:01:51;;;;;;;7.00;3.37;;;;;;;;;;4433535;32;20481;-54
2021/10/24 01:04:18;;;;;;;2.77;1.60;;;;;;;;;;4434105;32;20708;-56
2021/10/24 01:06:45;;;;;;;6.53;2.27;;;;;;;;;;4434075;32;20276;-54
2021/10/24 01:09:13;;;;;;;6.97;2.43;;;;;;;;;;4433753;32;20307;-55
2021/10/24 01:11:41;;;;;;;4.33;2.37;;;;;;;;;;4433872;32;20331;-55
2021/10/24 01:14:06;;;;;;;3.03;2.33;;;;;;;;;;4432384;32;20236;-54
2021/10/24 01:16:36;;;;;;;5.27;2.60;;;;;;;;;;4434014;32;20301;-54
2021/10/24 01:19:03;;;;;;;4.27;2.77;;;;;;;;;;4433905;32;20201;-54
2021/10/24 01:21:29;;;;;;;4.00;2.47;;;;;;;;;;4434042;32;20256;-54
2021/10/24 01:23:54;;;;;;;3.07;2.17;;;;;;;;;;4433982;32;20276;-56
2021/10/24 01:26:20;;;;;;;3.23;2.20;;;;;;;;;;4433416;32;20339;-55
2021/10/24 01:28:46;;;;;;;2.73;2.03;;;;;;;;;;4431893;32;20695;-55
2021/10/24 01:31:12;;;;;;;3.57;2.30;;;;;;;;;;4433512;32;20228;-54
2021/10/24 01:33:37;;;;;;;2.37;1.70;;;;;;;;;;4433374;32;20362;-55
2021/10/24 01:36:06;;;;;;;3.10;2.47;;;;;;;;;;4433302;32;20317;-55
2021/10/24 01:38:33;;;;;;;5.83;3.27;;;;;;;;;;4433387;32;20209;-55
2021/10/24 01:40:59;;;;;;;4.03;2.83;;;;;;;;;;4433129;32;20200;-55
2021/10/24 01:43:26;;;;;;;1.60;1.47;;;;;;;;;;4433373;32;20279;-55
2021/10/24 01:45:53;;;;;;;2.10;1.70;;;;;;;;;;4433101;32;20201;-54
2021/10/24 01:48:19;;;;;;;1.60;1.40;;;;;;;;;;4433214;32;20213;-54
2021/10/24 01:50:45;;;;;;;3.33;1.80;;;;;;;;;;4433090;32;20241;-55
2021/10/24 01:53:16;;;;;;;2.00;1.73;;;;;;;;;;4432937;32;20260;-54
2021/10/24 01:55:42;;;;;;;2.53;2.10;;;;;;;;;;4433500;32;20694;-54
2021/10/24 01:58:07;;;;;;;3.50;2.43;;;;;;;;;;4431328;32;20224;-54
2021/10/24 02:00:33;;;;;;;2.30;2.07;;;;;;;;;;4432822;32;20295;-55
2021/10/24 02:02:59;;;;;;;2.20;1.60;;;;;;;;;;4432462;32;20233;-55
2021/10/24 02:05:25;;;;;;;1.93;1.50;;;;;;;;;;4432714;32;20715;-55
2021/10/24 02:07:50;;;;;;;1.70;1.60;;;;;;;;;;4432878;32;20390;-54
2021/10/24 02:10:17;;;;;;;3.03;1.53;;;;;;;;;;4432646;32;20333;-54
2021/10/24 02:12:42;;;;;;;1.90;1.63;;;;;;;;;;4437383;32;20288;-53
2021/10/24 02:15:10;;;;;;;3.37;1.97;;;;;;;;;;4447997;32;20470;-53
2021/10/24 02:17:36;;;;;;;1.70;1.57;;;;;;;;;;4448591;32;20244;-53
2021/10/24 02:20:04;;;;;;;2.43;1.67;;;;;;;;;;4448347;32;20325;-53
2021/10/24 02:22:29;;;;;;;2.40;1.33;;;;;;;;;;4448223;32;20694;-54
2021/10/24 02:24:55;;;;;;;1.90;1.70;;;;;;;;;;4438825;32;20288;-56
2021/10/24 02:27:20;;;;;;;2.60;1.67;;;;;;;;;;4432246;32;20431;-55
2021/10/24 02:29:46;;;;;;;1.80;1.70;;;;;;;;;;4432434;32;20279;-54
2021/10/24 02:32:12;;;;;;;3.73;1.87;;;;;;;;;;4432232;32;20231;-54
2021/10/24 02:34:39;;;;;;;2.93;1.93;;;;;;;;;;4432584;32;20322;-55
2021/10/24 02:37:04;;;;;;;1.30;1.20;;;;;;;;;;4431993;32;20221;-54
2021/10/24 02:39:30;;;;;;;1.50;1.40;;;;;;;;;;4432540;32;20294;-55
2021/10/24 02:41:55;;;;;;;2.43;1.70;;;;;;;;;;4432148;32;20694;-54
2021/10/24 02:44:22;;;;;;;1.90;1.40;;;;;;;;;;4432358;32;20701;-53
2021/10/24 02:46:48;;;;;;;1.63;1.53;;;;;;;;;;4432593;32;20237;-53
2021/10/24 02:49:13;;;;;;;2.47;1.47;;;;;;;;;;4432148;32;20283;-55
2021/10/24 02:51:39;;;;;;;1.73;1.47;;;;;;;;;;4432373;32;20269;-54
2021/10/24 02:54:04;;;;;;;1.83;1.67;;;;;;;;;;4432306;32;20327;-53
2021/10/24 02:56:30;;;;;;;1.70;1.60;;;;;;;;;;4433463;32;20307;-53
2021/10/24 02:58:55;;;;;;;4.13;2.57;;;;;;;;;;4435440;32;20275;-55
2021/10/24 03:01:21;;;;;;;2.83;2.20;;;;;;;;;;4433638;32;20245;-53
2021/10/24 03:03:46;;;;;;;3.27;2.33;;;;;;;;;;4435655;32;20534;-53
2021/10/24 03:06:12;;;;;;;3.47;2.00;;;;;;;;;;4435730;32;20684;-54
2021/10/24 03:08:37;;;;;;;3.23;2.57;;;;;;;;;;4435594;32;20350;-53
2021/10/24 03:11:02;;;;;;;2.20;2.00;;;;;;;;;;4435086;32;20275;-53
2021/10/24 03:13:28;;;;;;;4.37;2.33;;;;;;;;;;4445126;32;20362;-53
2021/10/24 03:15:53;;;;;;;6.70;3.80;;;;;;;;;;4450740;32;20745;-53
2021/10/24 03:18:19;;;;;;;9.00;5.03;;;;;;;;;;4451025;32;20366;-54
2021/10/24 03:20:46;;;;;;;8.90;5.70;;;;;;;;;;4444295;32;20621;-54
2021/10/24 03:23:11;;;;;;;9.23;4.97;;;;;;;;;;4435100;32;20239;-55
2021/10/24 03:25:37;;;;;;;8.90;3.93;;;;;;;;;;4435258;32;20403;-54
2021/10/24 03:28:03;;;;;;;6.30;4.20;;;;;;;;;;4435013;32;20274;-54
2021/10/24 03:30:28;;;;;;;4.17;3.23;;;;;;;;;;4435168;32;20304;-54
2021/10/24 03:32:54;;;;;;;3.03;2.37;;;;;;;;;;4434966;32;20721;-55
2021/10/24 03:35:19;;;;;;;3.00;2.30;;;;;;;;;;4435302;32;20295;-52
2021/10/24 03:37:45;;;;;;;4.00;2.80;;;;;;;;;;4435254;32;20250;-54
2021/10/24 03:40:11;;;;;;;6.73;4.90;;;;;;;;;;4434548;32;20294;-55
2021/10/24 03:42:37;;;;;;;3.50;2.93;;;;;;;;;;4435049;32;20597;-54
2021/10/24 03:45:04;;;;;;;5.70;3.07;;;;;;;;;;4434858;32;20276;-55
2021/10/24 03:47:29;;;;;;;3.13;2.60;;;;;;;;;;4434764;32;20275;-53
2021/10/24 03:49:55;;;;;;;4.77;3.03;;;;;;;;;;4435312;32;20509;-55
2021/10/24 03:52:20;;;;;;;4.20;2.80;;;;;;;;;;4420643;32;20351;-54
2021/10/24 03:54:46;;;;;;;6.83;2.50;;;;;;;;;;4435318;32;20280;-55
2021/10/24 03:57:11;;;;;;;3.97;2.07;;;;;;;;;;4433205;32;20228;-55
2021/10/24 03:59:36;;;;;;;5.30;2.93;;;;;;;;;;4434995;32;20309;-55
2021/10/24 04:02:02;;;;;;;2.87;2.50;;;;;;;;;;4434000;32;20294;-53
2021/10/24 04:04:28;;;;;;;5.00;3.30;;;;;;;;;;4434993;32;20287;-54
2021/10/24 04:06:53;;;;;;;4.30;3.50;;;;;;;;;;4434820;32;20221;-54
2021/10/24 04:09:19;;;;;;;5.50;3.57;;;;;;;;;;4434707;32;20350;-54
2021/10/24 04:11:44;;;;;;;6.83;4.43;;;;;;;;;;4434734;32;20320;-54
2021/10/24 04:14:10;;;;;;;8.43;3.80;;;;;;;;;;4448929;32;20675;-54
2021/10/24 04:16:35;;;;;;;17.40;4.53;;;;;;;;;;4446189;32;20304;-54
2021/10/24 04:19:01;;;;;;;8.13;5.63;;;;;;;;;;4434764;32;20745;-53
2021/10/24 04:21:27;;;;;;;6.80;4.70;;;;;;;;;;4434668;32;20229;-54
2021/10/24 04:23:53;;;;;;;6.37;4.10;;;;;;;;;;4434243;32;20261;-54
2021/10/24 04:26:18;;;;;;;6.10;3.63;;;;;;;;;;4434244;32;20619;-53
2021/10/24 04:28:44;;;;;;;5.17;3.67;;;;;;;;;;4434978;32;20619;-53
2021/10/24 04:31:09;;;;;;;6.57;3.73;;;;;;;;;;4434418;32;20401;-53
2021/10/24 04:33:35;;;;;;;5.60;4.07;;;;;;;;;;4434716;32;20271;-53
2021/10/24 04:36:00;;;;;;;5.20;4.10;;;;;;;;;;4434899;32;20722;-54
2021/10/24 04:38:28;;;;;;;4.00;3.30;;;;;;;;;;4434247;32;20355;-53
2021/10/24 04:40:53;;;;;;;7.23;5.27;;;;;;;;;;4434394;32;20243;-54
2021/10/24 04:43:19;;;;;;;7.30;5.80;;;;;;;;;;4434559;32;20280;-54
2021/10/24 04:45:44;;;;;;;9.67;6.23;;;;;;;;;;4434559;32;20347;-55
2021/10/24 04:48:10;;;;;;;7.87;5.43;;;;;;;;;;4434099;32;20334;-54
2021/10/24 04:50:35;;;;;;;9.43;5.80;;;;;;;;;;4434445;32;20292;-55
2021/10/24 04:53:08;;;;;;;7.23;4.83;;;;;;;;;;4433955;32;20765;-54
2021/10/24 04:55:35;;;;;;;6.87;4.87;;;;;;;;;;4433040;32;20287;-54
2021/10/24 04:58:01;;;;;;;5.67;4.77;;;;;;;;;;4434038;32;20376;-54
2021/10/24 05:00:27;;;;;;;8.03;4.97;;;;;;;;;;4434474;32;20284;-54
2021/10/24 05:02:53;;;;;;;4.67;4.00;;;;;;;;;;4433677;32;20240;-54
2021/10/24 05:05:18;;;;;;;8.87;5.07;;;;;;;;;;4432837;32;20303;-53
2021/10/24 05:07:44;;;;;;;4.83;3.87;;;;;;;;;;4434590;32;20332;-54
2021/10/24 05:10:10;;;;;;;11.87;5.03;;;;;;;;;;4434135;32;20284;-54
2021/10/24 05:12:35;;;;;;;7.17;4.23;;;;;;;;;;4433668;32;20681;-54
2021/10/24 05:15:02;;;;;;;7.97;4.97;;;;;;;;;;4433911;32;20303;-54
2021/10/24 05:17:27;;;;;;;7.33;5.03;;;;;;;;;;4434228;32;20383;-54
2021/10/24 05:19:53;;;;;;;7.80;5.30;;;;;;;;;;4433685;32;20740;-53
2021/10/24 05:22:20;;;;;;;9.33;6.60;;;;;;;;;;4433722;32;20665;-53
2021/10/24 05:24:46;;;;;;;9.80;5.73;;;;;;;;;;4433604;32;20296;-54
2021/10/24 05:27:11;;;;;;;8.00;4.70;;;;;;;;;;4433699;32;20277;-54
2021/10/24 05:29:36;;;;;;;7.43;4.67;;;;;;;;;;4433750;32;20292;-53
2021/10/24 05:32:03;;;;;;;7.60;4.60;;;;;;;;;;4433616;32;20727;-53
2021/10/24 05:34:28;;;;;;;10.83;5.60;;;;;;;;;;4433574;32;20774;-55
2021/10/24 05:36:54;;;;;;;7.50;5.87;;;;;;;;;;4433612;32;20236;-54
2021/10/24 05:39:19;;;;;;;20.37;17.23;;;;;;;;;;4433268;32;20284;-56
2021/10/24 05:41:45;;;;;;;13.63;10.87;;;;;;;;;;4433442;32;20258;-52
2021/10/24 05:44:12;;;;;;;6.90;6.00;;;;;;;;;;4433104;32;20309;-53
2021/10/24 05:46:38;;;;;;;7.93;5.07;;;;;;;;;;4432819;32;20348;-54
2021/10/24 05:49:04;;;;;;;5.63;4.90;;;;;;;;;;4432706;32;20232;-53
2021/10/24 05:51:29;;;;;;;8.00;6.00;;;;;;;;;;4432922;32;20541;-53
2021/10/24 05:53:55;;;;;;;9.87;6.97;;;;;;;;;;4431446;32;20717;-54
2021/10/24 05:56:21;;;;;;;9.57;5.50;;;;;;;;;;4432721;32;20405;-53
2021/10/24 05:58:49;;;;;;;5.97;4.07;;;;;;;;;;4433019;32;20762;-55
2021/10/24 06:01:14;;;;;;;6.80;5.10;;;;;;;;;;4432304;32;20256;-53
2021/10/24 06:03:39;;;;;;;7.30;5.20;;;;;;;;;;4431543;32;20647;-53
2021/10/24 06:06:05;;;;;;;6.53;3.93;;;;;;;;;;4430860;32;20275;-53
2021/10/24 06:08:31;;;;;;;6.60;4.80;;;;;;;;;;4431342;32;20393;-53
2021/10/24 06:11:12;;;;;;;6.67;5.43;;;;;;;;;;4429574;32;20602;-54
2021/10/24 06:13:39;;;;;;;8.20;4.67;;;;;;;;;;4434355;32;20216;-54
2021/10/24 06:16:04;;;;;;;6.80;5.27;;;;;;;;;;4446857;32;20270;-54
2021/10/24 06:18:30;;;;;;;8.13;5.73;;;;;;;;;;4448378;32;20295;-54
2021/10/24 06:20:55;;;;;;;10.70;6.70;;;;;;;;;;4440606;32;20371;-54
2021/10/24 06:23:21;;;;;;;8.10;6.67;;;;;;;;;;4432844;32;20810;-53
2021/10/24 06:25:46;;;;;;;9.40;6.03;;;;;;;;;;4433070;32;20272;-55
2021/10/24 06:28:15;;;;;;;12.00;5.23;;;;;;;;;;4432677;32;20268;-53
2021/10/24 06:30:41;;;;;;;7.53;5.07;;;;;;;;;;4431980;32;20300;-55
2021/10/24 06:33:07;;;;;;;9.17;5.77;;;;;;;;;;4432430;32;20621;-54
2021/10/24 06:35:34;;;;;;;7.60;5.30;;;;;;;;;;4432827;32;20343;-54
2021/10/24 06:37:59;;;;;;;8.97;6.10;;;;;;;;;;4432280;32;20237;-54
2021/10/24 06:40:24;;;;;;;18.03;6.20;;;;;;;;;;4432391;32;20283;-54
2021/10/24 06:42:50;;;;;;;14.27;10.07;;;;;;;;;;4432535;32;20331;-53
2021/10/24 06:45:15;;;;;;;14.63;7.33;;;;;;;;;;4432792;32;20268;-54
2021/10/24 06:47:41;;;;;;;13.97;9.23;;;;;;;;;;4432598;32;20255;-54
2021/10/24 06:50:09;;;;;;;9.97;7.33;;;;;;;;;;4432277;32;20275;-55
2021/10/24 06:52:34;;;;;;;7.17;5.30;;;;;;;;;;4432776;32;20216;-53
2021/10/24 06:55:00;;;;;;;6.33;5.40;;;;;;;;;;4431453;32;20779;-55
2021/10/24 06:57:26;;;;;;;8.53;5.77;;;;;;;;;;4432663;32;20257;-54
2021/10/24 06:59:51;;;;;;;9.73;6.57;;;;;;;;;;4431525;32;20773;-54
2021/10/24 07:02:17;;;;;;;8.47;6.07;;;;;;;;;;4432037;32;20281;-53
2021/10/24 07:04:43;;;;;;;7.60;5.67;;;;;;;;;;4432483;32;20347;-54
2021/10/24 07:07:08;;;;;;;6.13;4.53;;;;;;;;;;4432087;32;20316;-53
2021/10/24 07:09:34;;;;;;;13.87;8.40;;;;;;;;;;4432169;32;20764;-54
2021/10/24 07:11:59;;;;;;;10.33;6.93;;;;;;;;;;4432509;32;20271;-54
2021/10/24 07:14:25;;;;;;;7.93;6.13;;;;;;;;;;4446477;32;20608;-55
2021/10/24 07:16:51;;;;;;;9.87;6.37;;;;;;;;;;4442426;32;20353;-55
2021/10/24 07:19:16;;;;;;;8.10;5.80;;;;;;;;;;4432529;32;20314;-53
2021/10/24 07:21:42;;;;;;;9.30;6.03;;;;;;;;;;4430906;32;20261;-53
2021/10/24 07:24:07;;;;;;;7.60;5.33;;;;;;;;;;4432658;32;20728;-53
2021/10/24 07:26:33;;;;;;;9.73;4.97;;;;;;;;;;4432414;32;20248;-54
2021/10/24 07:28:59;;;;;;;11.00;5.40;;;;;;;;;;4432240;32;20347;-55
2021/10/24 07:31:25;;;;;;;5.60;3.40;;;;;;;;;;4432548;32;20567;-53
2021/10/24 07:33:51;;;;;;;5.83;4.27;;;;;;;;;;4432473;32;20738;-54
2021/10/24 07:36:16;;;;;;;6.53;4.87;;;;;;;;;;4431069;32;20276;-53
2021/10/24 07:38:41;;;;;;;6.03;4.33;;;;;;;;;;4432647;32;20755;-54
2021/10/24 07:41:07;;;;;;;10.07;5.43;;;;;;;;;;4431917;32;20301;-53
2021/10/24 07:43:32;;;;;;;13.63;5.27;;;;;;;;;;4434057;32;20537;-53
2021/10/24 07:45:58;;;;;;;8.23;5.43;;;;;;;;;;4433839;32;20716;-54
2021/10/24 07:48:24;;;;;;;7.83;4.57;;;;;;;;;;4434294;32;20338;-53
2021/10/24 07:50:50;;;;;;;12.43;5.40;;;;;;;;;;4434293;32;20292;-53
2021/10/24 07:53:16;;;;;;;11.97;5.13;;;;;;;;;;4435069;32;20276;-54
2021/10/24 07:55:43;;;;;;;4.17;3.67;;;;;;;;;;4435429;32;20302;-54
2021/10/24 07:58:09;;;;;;;6.97;4.33;;;;;;;;;;4434714;32;20264;-54
2021/10/24 08:00:34;;;;;;;6.83;3.77;;;;;;;;;;4434922;32;20337;-55
2021/10/24 08:03:08;;;;;;;5.47;4.00;;;;;;;;;;4434259;32;20311;-55
2021/10/24 08:05:34;;;;;;;7.33;3.83;;;;;;;;;;4435113;32;20308;-54
2021/10/24 08:08:01;;;;;;;4.27;3.60;;;;;;;;;;4434663;32;20661;-53
2021/10/24 08:10:26;;;;;;;5.67;4.00;;;;;;;;;;4434546;32;20292;-54
2021/10/24 08:12:52;;;;;;;4.17;3.10;;;;;;;;;;4434494;32;20224;-53
2021/10/24 08:15:19;;;;;;;8.73;3.33;;;;;;;;;;4434682;32;20352;-55
2021/10/24 08:17:45;;;;;;;5.33;3.80;;;;;;;;;;4434888;32;20247;-54
2021/10/24 08:20:11;;;;;;;3.90;2.70;;;;;;;;;;4434412;32;20284;-54
2021/10/24 08:22:37;;;;;;;3.27;2.63;;;;;;;;;;4434855;32;20218;-54
2021/10/24 08:25:03;;;;;;;3.73;2.67;;;;;;;;;;4433896;32;20284;-54
2021/10/24 08:27:30;;;;;;;4.87;2.43;;;;;;;;;;4434423;32;20312;-54
2021/10/24 08:29:56;;;;;;;9.00;3.13;;;;;;;;;;4434387;32;20223;-54
2021/10/24 08:32:22;;;;;;;5.77;2.67;;;;;;;;;;4433293;32;20287;-54
2021/10/24 08:34:47;;;;;;;3.30;2.77;;;;;;;;;;4433075;32;20327;-54
2021/10/24 08:37:13;;;;;;;7.47;3.03;;;;;;;;;;4433707;32;20217;-54
2021/10/24 08:39:39;;;;;;;4.60;3.20;;;;;;;;;;4433820;32;20291;-56
2021/10/24 08:42:05;;;;;;;5.57;3.73;;;;;;;;;;4434075;32;20256;-54
2021/10/24 08:44:31;;;;;;;8.63;3.67;;;;;;;;;;4434242;32;20321;-55
2021/10/24 08:46:57;;;;;;;7.33;3.03;;;;;;;;;;4434493;32;20229;-54
2021/10/24 08:49:23;;;;;;;7.33;3.70;;;;;;;;;;4432853;32;20660;-56
2021/10/24 08:51:49;;;;;;;14.57;4.93;;;;;;;;;;4433859;32;20221;-54
2021/10/24 08:54:18;;;;;;;10.00;6.23;;;;;;;;;;4433377;32;20205;-53
2021/10/24 08:56:43;;;;;;;9.67;6.00;;;;;;;;;;4433805;32;20229;-53
2021/10/24 08:59:10;;;;;;;10.27;6.17;;;;;;;;;;4433637;32;20275;-54
2021/10/24 09:01:49;;;;;;;5.43;3.43;;;;;;;;;;4426020;32;20284;-53
2021/10/24 09:04:14;;;;;;;9.57;5.47;;;;;;;;;;4433871;32;20197;-54
2021/10/24 09:06:58;;;;;;;5.17;3.87;;;;;;;;;;4433879;32;20373;-53
2021/10/24 09:09:31;;;;;;;7.47;3.97;;;;;;;;;;4433303;32;20343;-53
2021/10/24 09:12:09;;;;;;;11.63;3.37;;;;;;;;;;4433017;32;20347;-53
2021/10/24 09:14:47;;;;;;;3.33;2.50;;;;;;;;;;4433561;32;20347;-54
2021/10/24 09:17:16;;;;;;;10.70;5.47;;;;;;;;;;4434019;32;20255;-54
2021/10/24 09:19:44;;;;;;;4.20;2.80;;;;;;;;;;4434064;32;20266;-54
2021/10/24 09:22:20;;;;;;;3.90;2.43;;;;;;;;;;4433543;32;20224;-54
2021/10/24 09:25:04;;;;;;;4.10;2.80;;;;;;;;;;4433749;32;20265;-54
2021/10/24 09:27:33;;;;;;;4.03;2.77;;;;;;;;;;4432348;32;20263;-54
2021/10/24 09:30:12;;;;;;;6.97;2.90;;;;;;;;;;4433595;32;20223;-53
2021/10/24 09:32:50;;;;;;;2.93;2.17;;;;;;;;;;4434388;32;20720;-54
2021/10/24 09:35:16;;;;;;;12.07;4.30;;;;;;;;;;4433732;32;20247;-54
2021/10/24 09:37:46;;;;;;;13.07;6.07;;;;;;;;;;4433585;32;20260;-54
2021/10/24 09:40:12;;;;;;;14.43;7.10;;;;;;;;;;4433253;32;20255;-53
2021/10/24 09:42:38;;;;;;;4.73;2.83;;;;;;;;;;4433399;32;20240;-54
2021/10/24 09:45:08;;;;;;;6.03;3.23;;;;;;;;;;4432641;32;20772;-54
2021/10/24 09:47:38;;;;;;;3.20;2.50;;;;;;;;;;4432849;32;20291;-54
2021/10/24 09:50:06;;;;;;;8.83;3.00;;;;;;;;;;4434011;32;20685;-52
2021/10/24 09:52:34;;;;;;;5.13;2.40;;;;;;;;;;4433705;32;20279;-53
2021/10/24 09:55:00;;;;;;;2.33;1.77;;;;;;;;;;4433452;32;20295;-52
2021/10/24 09:57:27;;;;;;;3.73;2.07;;;;;;;;;;4433374;32;20249;-53
2021/10/24 09:59:54;;;;;;;2.63;2.30;;;;;;;;;;4433544;32;20259;-54
2021/10/24 10:02:22;;;;;;;4.30;2.90;;;;;;;;;;4432961;32;20248;-54
2021/10/24 10:04:47;;;;;;;3.60;2.93;;;;;;;;;;4433655;32;20407;-54
2021/10/24 10:07:14;;;;;;;9.23;4.57;;;;;;;;;;4433465;32;20256;-53
2021/10/24 10:09:43;;;;;;;6.03;4.00;;;;;;;;;;4433796;32;20757;-53
2021/10/24 10:12:12;;;;;;;7.20;2.40;;;;;;;;;;4433475;32;20229;-53
2021/10/24 10:14:41;;;;;;;5.73;1.97;;;;;;;;;;4433724;32;20294;-54
2021/10/24 10:17:11;;;;;;;4.13;2.20;;;;;;;;;;4431221;32;20228;-53
2021/10/24 10:19:41;;;;;;;2.93;2.00;;;;;;;;;;4431150;32;20746;-54
2021/10/24 10:22:22;;;;;;;10.03;6.20;;;;;;;;;;4432687;32;20694;-53
2021/10/24 10:24:53;;;;;;;4.70;3.20;;;;;;;;;;4417786;32;20214;-54
2021/10/24 10:27:27;;;;;;;3.93;1.80;;;;;;;;;;4427838;32;20436;-53
2021/10/24 10:30:01;;;;;;;2.70;1.60;;;;;;;;;;4433255;32;21160;-53
2021/10/24 10:32:36;;;;;;;4.47;2.00;;;;;;;;;;4433140;32;20639;-52
2021/10/24 10:35:13;;;;;;;4.77;2.53;;;;;;;;;;4432770;32;20325;-54
2021/10/24 10:37:43;;;;;;;11.97;1.70;;;;;;;;;;4432945;32;20258;-53
2021/10/24 10:40:19;;;;;;;3.87;2.80;;;;;;;;;;4430767;32;20272;-53
2021/10/24 10:42:45;;;;;;;6.90;2.73;;;;;;;;;;4432231;32;20311;-53
2021/10/24 10:45:16;;;;;;;5.70;3.17;;;;;;;;;;4432371;32;20330;-56
2021/10/24 10:47:54;;;;;;;4.33;2.97;;;;;;;;;;4432281;32;20266;-54
2021/10/24 10:50:32;;;;;;;14.17;8.90;;;;;;;;;;4431901;32;20413;-54
2021/10/24 10:53:02;;;;;;;2.77;2.03;;;;;;;;;;4422046;32;20232;-55
2021/10/24 10:56:05;;;;;;;3.03;1.60;;;;;;;;;;4417781;32;20541;-54
2021/10/24 10:58:47;;;;;;;2.97;2.17;;;;;;;;;;4417245;32;20267;-54
2021/10/24 11:01:18;;;;;;;2.10;1.60;;;;;;;;;;4425864;32;20342;-53
2021/10/24 11:04:08;;;;;;;2.97;1.90;;;;;;;;;;4433034;32;20209;-53
2021/10/24 11:06:34;;;;;;;2.60;1.50;;;;;;;;;;4432778;32;20289;-53
2021/10/24 11:09:04;;;;;;;5.73;2.80;;;;;;;;;;4432338;32;20378;-54
2021/10/24 11:11:43;;;;;;;2.70;1.62;;;;;;;;;;4432814;32;20224;-54
2021/10/24 11:14:15;;;;;;;3.10;2.08;;;;;;;;;;4432984;32;20521;-54
2021/10/24 11:16:48;;;;;;;2.70;2.00;;;;;;;;;;4432530;32;20308;-53
2021/10/24 11:19:29;;;;;;;1.85;1.42;;;;;;;;;;4434163;32;20252;-53
2021/10/24 11:21:57;;;;;;;5.20;1.30;;;;;;;;;;4435194;32;20240;-53
2021/10/24 11:24:23;;;;;;;2.40;1.87;;;;;;;;;;4435015;32;20234;-54
2021/10/24 11:26:59;;;;;;;2.15;1.35;;;;;;;;;;4435381;32;20236;-54
2021/10/24 11:29:24;;;;;;;7.90;4.55;;;;;;;;;;4435151;32;20616;-53
2021/10/24 11:32:35;;;;;;;4.10;1.90;;;;;;;;;;4435932;32;20285;-53
2021/10/24 11:35:10;;;;;;;7.75;3.72;;;;;;;;;;4435554;32;20716;-54
2021/10/24 11:37:40;;;;;;;3.00;1.95;;;;;;;;;;4435159;32;20254;-53
2021/10/24 11:40:17;;;;;;;3.15;2.20;;;;;;;;;;4435565;32;20197;-53
2021/10/24 11:43:01;;;;;;;6.03;1.95;;;;;;;;;;4435324;32;20228;-54
2021/10/24 11:45:41;;;;;;;5.75;3.40;;;;;;;;;;4435359;32;20292;-54
2021/10/24 11:48:08;;;;;;;4.43;1.80;;;;;;;;;;4434786;32;20623;-53
2021/10/24 11:50:56;;;;;;;2.62;2.05;;;;;;;;;;4434954;32;20204;-54
2021/10/24 11:53:32;;;;;;;1.73;1.17;;;;;;;;;;4435227;32;20237;-53
2021/10/24 11:56:05;;;;;;;13.97;7.87;;;;;;;;;;4435301;32;20305;-53
2021/10/24 12:01:23;;;;;;;10.20;6.87;;;;;;;;;;4434416;32;20287;-53
2021/10/24 12:04:05;;;;;;;10.10;6.18;;;;;;;;;;4435125;32;20196;-54
2021/10/24 12:07:00;;;;;;;7.65;4.15;;;;;;;;;;4434878;32;20376;-54
2021/10/24 12:09:42;;;;;;;4.37;2.20;;;;;;;;;;4434758;32;20237;-54
2021/10/24 12:12:12;;;;;;;3.50;2.10;;;;;;;;;;4433548;32;20287;-53
2021/10/24 12:14:53;;;;;;;5.27;3.53;;;;;;;;;;4434856;32;20657;-54
2021/10/24 12:17:25;;;;;;;3.95;3.10;;;;;;;;;;4435017;32;20287;-54
2021/10/24 12:20:23;;;;;;;3.67;1.57;;;;;;;;;;4435159;32;20288;-54
2021/10/24 12:22:51;;;;;;;6.13;3.37;;;;;;;;;;4435119;32;20589;-53
2021/10/24 12:25:21;;;;;;;3.27;2.07;;;;;;;;;;4433825;32;20667;-54
2021/10/24 12:28:11;;;;;;;2.17;1.50;;;;;;;;;;4434376;32;20282;-53
2021/10/24 12:30:37;;;;;;;2.83;2.33;;;;;;;;;;4434151;32;20233;-54
2021/10/24 12:33:12;;;;;;;3.47;2.90;;;;;;;;;;4434789;32;20658;-54
2021/10/24 12:35:45;;;;;;;4.07;2.10;;;;;;;;;;4434484;32;20258;-53
2021/10/24 12:38:11;;;;;;;5.50;2.43;;;;;;;;;;4434132;32;20296;-54
2021/10/24 12:40:37;;;;;;;1.73;1.30;;;;;;;;;;4434374;32;20354;-54
2021/10/24 12:43:11;;;;;;;14.13;7.70;;;;;;;;;;4433110;32;20288;-54
2021/10/24 12:45:45;;;;;;;10.20;4.27;;;;;;;;;;4434669;32;20241;-54
2021/10/24 12:48:11;;;;;;;7.07;5.53;;;;;;;;;;4433621;32;20311;-53
2021/10/24 12:50:37;;;;;;;8.27;4.87;;;;;;;;;;4433935;32;20338;-57
2021/10/24 12:53:06;;;;;;;5.10;2.67;;;;;;;;;;4433882;32;20582;-54
2021/10/24 12:55:32;;;;;;;10.17;2.27;;;;;;;;;;4433161;32;20287;-54
2021/10/24 12:58:00;;;;;;;7.23;2.83;;;;;;;;;;4434540;32;20270;-54
2021/10/24 13:00:26;;;;;;;7.53;4.10;;;;;;;;;;4434008;32;20232;-54
2021/10/24 13:02:51;;;;;;;9.27;4.93;;;;;;;;;;4433964;32;20286;-54
2021/10/24 13:05:17;;;;;;;4.40;2.97;;;;;;;;;;4433797;32;20383;-53
2021/10/24 13:07:42;;;;;;;12.20;4.83;;;;;;;;;;4434119;32;20504;-54
2021/10/24 13:10:08;;;;;;;6.40;4.00;;;;;;;;;;4433820;32;20307;-54
2021/10/24 13:12:33;;;;;;;9.93;3.97;;;;;;;;;;4433989;32;20259;-54
2021/10/24 13:14:59;;;;;;;11.50;7.03;;;;;;;;;;4433939;32;20699;-54
2021/10/24 13:17:25;;;;;;;16.60;11.20;;;;;;;;;;4434127;32;20378;-54
2021/10/24 13:19:51;;;;;;;14.40;9.50;;;;;;;;;;4431973;32;20348;-54
2021/10/24 13:25:01;;;;;;;11.90;7.63;;;;;;;;;;4433419;32;20310;-54
2021/10/24 13:27:26;;;;;;;7.87;3.93;;;;;;;;;;4433844;32;20273;-54
2021/10/24 13:29:52;;;;;;;14.53;5.97;;;;;;;;;;4433050;32;20244;-54
2021/10/24 13:32:17;;;;;;;6.17;4.27;;;;;;;;;;4433379;32;20641;-54
2021/10/24 13:34:43;;;;;;;10.73;4.20;;;;;;;;;;4432843;32;20703;-55
2021/10/24 13:37:08;;;;;;;8.43;3.80;;;;;;;;;;4432389;32;20625;-53
2021/10/24 13:39:34;;;;;;;12.87;5.37;;;;;;;;;;4433099;32;20790;-53
2021/10/24 13:42:00;;;;;;;9.83;4.40;;;;;;;;;;4432742;32;20265;-54
2021/10/24 13:44:26;;;;;;;12.00;5.93;;;;;;;;;;4432939;32;20406;-56
2021/10/24 13:46:51;;;;;;;7.07;3.47;;;;;;;;;;4432163;32;20270;-55
2021/10/24 13:49:17;;;;;;;8.60;4.43;;;;;;;;;;4432763;32;20335;-54
2021/10/24 13:51:42;;;;;;;16.43;5.97;;;;;;;;;;4432290;32;20349;-54
2021/10/24 13:54:08;;;;;;;6.80;3.83;;;;;;;;;;4433257;32;20283;-53
2021/10/24 13:56:33;;;;;;;11.97;2.80;;;;;;;;;;4433104;32;20379;-53
2021/10/24 13:58:59;;;;;;;11.43;4.20;;;;;;;;;;4432687;32;20266;-53
2021/10/24 14:01:24;;;;;;;18.13;3.60;;;;;;;;;;4430836;32;20260;-54
2021/10/24 14:03:55;;;;;;;5.90;3.70;;;;;;;;;;4432113;32;20268;-55
2021/10/24 14:06:22;;;;;;;8.80;3.23;;;;;;;;;;4433265;32;20324;-54
2021/10/24 14:08:49;;;;;;;5.50;3.60;;;;;;;;;;4433143;32;20660;-54
2021/10/24 14:11:16;;;;;;;10.03;4.10;;;;;;;;;;4433077;32;20476;-54
2021/10/24 14:13:42;;;;;;;7.27;3.83;;;;;;;;;;4433319;32;20742;-54
2021/10/24 14:16:09;;;;;;;9.00;4.17;;;;;;;;;;4432631;32;20249;-54
2021/10/24 14:18:35;;;;;;;13.37;4.20;;;;;;;;;;4433192;32;20277;-55
2021/10/24 14:21:00;;;;;;;5.60;3.97;;;;;;;;;;4432687;32;20553;-54
2021/10/24 14:23:26;;;;;;;15.57;7.17;;;;;;;;;;4433110;32;20291;-55
2021/10/24 14:25:51;;;;;;;11.47;6.07;;;;;;;;;;4433330;32;20347;-54
2021/10/24 14:28:17;;;;;;;10.67;5.77;;;;;;;;;;4433268;32;20367;-55
2021/10/24 14:30:42;;;;;;;11.07;5.63;;;;;;;;;;4432646;32;20283;-54
2021/10/24 14:33:07;;;;;;;20.13;5.27;;;;;;;;;;4432499;32;20257;-54
2021/10/24 14:35:33;;;;;;;13.07;6.50;;;;;;;;;;4432391;32;20303;-53
2021/10/24 14:37:58;;;;;;;11.97;4.47;;;;;;;;;;4433064;32;20256;-54
2021/10/24 14:40:24;;;;;;;17.17;8.07;;;;;;;;;;4432782;32;20279;-54
2021/10/24 14:42:49;;;;;;;8.80;4.50;;;;;;;;;;4431762;32;20286;-54
2021/10/24 14:45:15;;;;;;;10.17;6.13;;;;;;;;;;4432158;32;20629;-54
2021/10/24 14:47:40;;;;;;;21.80;10.50;;;;;;;;;;4432682;32;20451;-54
2021/10/24 14:50:07;;;;;;;16.80;8.33;;;;;;;;;;4432246;32;20287;-55